sensor_id;sensor_type;location;lat;lon;timestamp;P1;durP1;ratioP1;P2;durP2;ratioP2
76157;SDS011;64907;51.574;6.502;2023-08-06T00:00:45;5.13;;;4.27;;
76157;SDS011;64907;51.574;6.502;2023-08-06T00:03:10;5.88;;;3.90;;
76157;SDS011;64907;51.574;6.502;2023-08-06T00:05:36;5.03;;;4.63;;
76157;SDS011;64907;51.574;6.502;2023-08-06T00:08:02;5.70;;;4.10;;
76157;SDS011;64907;51.574;6.502;2023-08-06T00:10:27;4.38;;;4.03;;
76157;SDS011;64907;51.574;6.502;2023-08-06T00:12:52;4.87;;;4.10;;
76157;SDS011;64907;51.574;6.502;2023-08-06T00:15:17;4.97;;;4.50;;
76157;SDS011;64907;51.574;6.502;2023-08-06T00:17:43;4.63;;;4.22;;
76157;SDS011;64907;51.574;6.502;2023-08-06T00:20:08;4.73;;;4.43;;
76157;SDS011;64907;51.574;6.502;2023-08-06T00:22:34;4.38;;;4.07;;
76157;SDS011;64907;51.574;6.502;2023-08-06T00:24:59;5.05;;;4.65;;
76157;SDS011;64907;51.574;6.502;2023-08-06T00:27:24;6.53;;;4.78;;
76157;SDS011;64907;51.574;6.502;2023-08-06T00:29:50;5.18;;;4.70;;
76157;SDS011;64907;51.574;6.502;2023-08-06T00:32:15;6.13;;;5.10;;
76157;SDS011;64907;51.574;6.502;2023-08-06T00:34:40;6.37;;;5.50;;
76157;SDS011;64907;51.574;6.502;2023-08-06T00:37:05;9.48;;;6.57;;
76157;SDS011;64907;51.574;6.502;2023-08-06T00:39:30;7.20;;;6.50;;
76157;SDS011;64907;51.574;6.502;2023-08-06T00:41:55;8.25;;;7.30;;
76157;SDS011;64907;51.574;6.502;2023-08-06T00:44:27;8.87;;;7.17;;
76157;SDS011;64907;51.574;6.502;2023-08-06T00:46:52;10.75;;;7.32;;
76157;SDS011;64907;51.574;6.502;2023-08-06T00:49:18;8.10;;;7.32;;
76157;SDS011;64907;51.574;6.502;2023-08-06T00:54:13;9.45;;;7.07;;
76157;SDS011;64907;51.574;6.502;2023-08-06T00:56:39;8.32;;;7.25;;
76157;SDS011;64907;51.574;6.502;2023-08-06T00:59:06;9.85;;;7.70;;
76157;SDS011;64907;51.574;6.502;2023-08-06T01:01:31;8.07;;;6.88;;
76157;SDS011;64907;51.574;6.502;2023-08-06T01:04:05;8.75;;;7.28;;
76157;SDS011;64907;51.574;6.502;2023-08-06T01:06:43;9.05;;;8.13;;
76157;SDS011;64907;51.574;6.502;2023-08-06T01:09:14;10.23;;;8.20;;
76157;SDS011;64907;51.574;6.502;2023-08-06T01:11:55;11.05;;;8.40;;
76157;SDS011;64907;51.574;6.502;2023-08-06T01:17:08;8.20;;;7.47;;
76157;SDS011;64907;51.574;6.502;2023-08-06T01:19:33;13.85;;;9.38;;
76157;SDS011;64907;51.574;6.502;2023-08-06T01:21:58;8.80;;;8.00;;
76157;SDS011;64907;51.574;6.502;2023-08-06T01:24:23;11.03;;;9.33;;
76157;SDS011;64907;51.574;6.502;2023-08-06T01:26:51;10.63;;;8.13;;
76157;SDS011;64907;51.574;6.502;2023-08-06T01:29:24;8.75;;;7.95;;
76157;SDS011;64907;51.574;6.502;2023-08-06T01:31:50;8.43;;;7.63;;
76157;SDS011;64907;51.574;6.502;2023-08-06T01:34:27;9.60;;;7.38;;
76157;SDS011;64907;51.574;6.502;2023-08-06T01:36:53;8.45;;;7.72;;
76157;SDS011;64907;51.574;6.502;2023-08-06T01:39:19;8.05;;;7.28;;
76157;SDS011;64907;51.574;6.502;2023-08-06T01:41:50;10.00;;;8.13;;
76157;SDS011;64907;51.574;6.502;2023-08-06T01:44:16;7.40;;;5.57;;
76157;SDS011;64907;51.574;6.502;2023-08-06T01:46:41;7.30;;;6.65;;
76157;SDS011;64907;51.574;6.502;2023-08-06T01:49:06;7.57;;;6.67;;
76157;SDS011;64907;51.574;6.502;2023-08-06T01:51:31;6.63;;;5.95;;
76157;SDS011;64907;51.574;6.502;2023-08-06T01:53:57;6.50;;;5.90;;
76157;SDS011;64907;51.574;6.502;2023-08-06T01:56:22;6.67;;;6.13;;
76157;SDS011;64907;51.574;6.502;2023-08-06T01:58:47;6.80;;;6.10;;
76157;SDS011;64907;51.574;6.502;2023-08-06T02:01:12;7.33;;;6.47;;
76157;SDS011;64907;51.574;6.502;2023-08-06T02:03:37;10.77;;;6.47;;
76157;SDS011;64907;51.574;6.502;2023-08-06T02:06:02;5.93;;;5.30;;
76157;SDS011;64907;51.574;6.502;2023-08-06T02:08:28;7.15;;;6.57;;
76157;SDS011;64907;51.574;6.502;2023-08-06T02:10:53;8.95;;;6.05;;
76157;SDS011;64907;51.574;6.502;2023-08-06T02:13:33;9.32;;;6.07;;
76157;SDS011;64907;51.574;6.502;2023-08-06T02:15:58;6.95;;;6.35;;
76157;SDS011;64907;51.574;6.502;2023-08-06T02:21:05;7.93;;;7.07;;
76157;SDS011;64907;51.574;6.502;2023-08-06T02:26:00;9.48;;;7.05;;
76157;SDS011;64907;51.574;6.502;2023-08-06T02:28:25;11.68;;;7.15;;
76157;SDS011;64907;51.574;6.502;2023-08-06T02:30:53;8.00;;;7.20;;
76157;SDS011;64907;51.574;6.502;2023-08-06T02:33:18;8.07;;;7.35;;
76157;SDS011;64907;51.574;6.502;2023-08-06T02:35:43;9.68;;;7.90;;
76157;SDS011;64907;51.574;6.502;2023-08-06T02:38:08;9.13;;;8.02;;
76157;SDS011;64907;51.574;6.502;2023-08-06T02:40:33;9.03;;;8.17;;
76157;SDS011;64907;51.574;6.502;2023-08-06T02:45:30;9.20;;;8.15;;
76157;SDS011;64907;51.574;6.502;2023-08-06T02:47:55;8.80;;;8.10;;
76157;SDS011;64907;51.574;6.502;2023-08-06T02:52:49;9.90;;;7.90;;
76157;SDS011;64907;51.574;6.502;2023-08-06T02:55:14;9.90;;;7.23;;
76157;SDS011;64907;51.574;6.502;2023-08-06T02:57:40;8.50;;;6.70;;
76157;SDS011;64907;51.574;6.502;2023-08-06T03:00:23;7.77;;;7.07;;
76157;SDS011;64907;51.574;6.502;2023-08-06T03:02:48;10.25;;;8.55;;
76157;SDS011;64907;51.574;6.502;2023-08-06T03:05:13;11.23;;;8.23;;
76157;SDS011;64907;51.574;6.502;2023-08-06T03:07:39;10.07;;;8.40;;
76157;SDS011;64907;51.574;6.502;2023-08-06T03:10:04;10.48;;;9.23;;
76157;SDS011;64907;51.574;6.502;2023-08-06T03:12:29;11.95;;;9.07;;
76157;SDS011;64907;51.574;6.502;2023-08-06T03:14:54;11.23;;;8.50;;
76157;SDS011;64907;51.574;6.502;2023-08-06T03:17:20;10.70;;;8.53;;
76157;SDS011;64907;51.574;6.502;2023-08-06T03:22:15;9.80;;;8.52;;
76157;SDS011;64907;51.574;6.502;2023-08-06T03:24:40;9.47;;;8.57;;
76157;SDS011;64907;51.574;6.502;2023-08-06T03:27:07;9.73;;;8.13;;
76157;SDS011;64907;51.574;6.502;2023-08-06T03:29:32;14.23;;;9.90;;
76157;SDS011;64907;51.574;6.502;2023-08-06T03:31:57;9.60;;;7.87;;
76157;SDS011;64907;51.574;6.502;2023-08-06T03:34:22;9.83;;;8.33;;
76157;SDS011;64907;51.574;6.502;2023-08-06T03:36:47;10.30;;;9.07;;
76157;SDS011;64907;51.574;6.502;2023-08-06T03:39:12;11.20;;;7.90;;
76157;SDS011;64907;51.574;6.502;2023-08-06T03:41:38;11.07;;;8.15;;
76157;SDS011;64907;51.574;6.502;2023-08-06T03:44:04;8.93;;;8.15;;
76157;SDS011;64907;51.574;6.502;2023-08-06T03:46:29;12.20;;;8.35;;
76157;SDS011;64907;51.574;6.502;2023-08-06T03:48:57;10.60;;;8.70;;
76157;SDS011;64907;51.574;6.502;2023-08-06T03:51:22;10.80;;;8.43;;
76157;SDS011;64907;51.574;6.502;2023-08-06T03:53:47;8.83;;;7.93;;
76157;SDS011;64907;51.574;6.502;2023-08-06T03:56:12;10.13;;;7.80;;
76157;SDS011;64907;51.574;6.502;2023-08-06T03:58:37;9.30;;;8.23;;
76157;SDS011;64907;51.574;6.502;2023-08-06T04:01:03;10.83;;;8.87;;
76157;SDS011;64907;51.574;6.502;2023-08-06T04:03:28;8.70;;;7.85;;
76157;SDS011;64907;51.574;6.502;2023-08-06T04:05:54;9.18;;;7.90;;
76157;SDS011;64907;51.574;6.502;2023-08-06T04:08:19;12.70;;;8.05;;
76157;SDS011;64907;51.574;6.502;2023-08-06T04:10:44;9.17;;;8.30;;
76157;SDS011;64907;51.574;6.502;2023-08-06T04:13:09;11.57;;;8.10;;
76157;SDS011;64907;51.574;6.502;2023-08-06T04:15:35;8.07;;;7.17;;
76157;SDS011;64907;51.574;6.502;2023-08-06T04:18:00;9.13;;;8.23;;
76157;SDS011;64907;51.574;6.502;2023-08-06T04:20:25;8.67;;;7.87;;
76157;SDS011;64907;51.574;6.502;2023-08-06T04:22:50;10.93;;;7.65;;
76157;SDS011;64907;51.574;6.502;2023-08-06T04:25:15;9.93;;;8.93;;
76157;SDS011;64907;51.574;6.502;2023-08-06T04:27:45;9.75;;;8.80;;
76157;SDS011;64907;51.574;6.502;2023-08-06T04:30:11;9.15;;;8.23;;
76157;SDS011;64907;51.574;6.502;2023-08-06T04:32:37;16.10;;;8.82;;
76157;SDS011;64907;51.574;6.502;2023-08-06T04:35:02;8.88;;;7.75;;
76157;SDS011;64907;51.574;6.502;2023-08-06T04:37:27;9.80;;;7.60;;
76157;SDS011;64907;51.574;6.502;2023-08-06T04:39:52;10.63;;;8.13;;
76157;SDS011;64907;51.574;6.502;2023-08-06T04:42:18;8.77;;;8.03;;
76157;SDS011;64907;51.574;6.502;2023-08-06T04:44:43;13.17;;;8.40;;
76157;SDS011;64907;51.574;6.502;2023-08-06T04:47:08;8.37;;;7.57;;
76157;SDS011;64907;51.574;6.502;2023-08-06T04:49:33;8.80;;;7.43;;
76157;SDS011;64907;51.574;6.502;2023-08-06T04:51:58;9.60;;;7.70;;
76157;SDS011;64907;51.574;6.502;2023-08-06T04:54:24;9.88;;;7.57;;
76157;SDS011;64907;51.574;6.502;2023-08-06T04:56:49;8.63;;;7.70;;
76157;SDS011;64907;51.574;6.502;2023-08-06T04:59:14;11.00;;;6.77;;
76157;SDS011;64907;51.574;6.502;2023-08-06T05:01:45;8.53;;;7.07;;
76157;SDS011;64907;51.574;6.502;2023-08-06T05:04:11;7.40;;;6.80;;
76157;SDS011;64907;51.574;6.502;2023-08-06T05:06:36;9.97;;;6.90;;
76157;SDS011;64907;51.574;6.502;2023-08-06T05:11:32;6.25;;;5.85;;
76157;SDS011;64907;51.574;6.502;2023-08-06T05:13:57;7.40;;;5.73;;
76157;SDS011;64907;51.574;6.502;2023-08-06T05:16:23;6.77;;;5.60;;
76157;SDS011;64907;51.574;6.502;2023-08-06T05:18:57;6.18;;;5.60;;
76157;SDS011;64907;51.574;6.502;2023-08-06T05:21:22;6.32;;;5.25;;
76157;SDS011;64907;51.574;6.502;2023-08-06T05:23:47;5.28;;;4.90;;
76157;SDS011;64907;51.574;6.502;2023-08-06T05:26:12;5.70;;;5.10;;
76157;SDS011;64907;51.574;6.502;2023-08-06T05:28:39;5.40;;;5.00;;
76157;SDS011;64907;51.574;6.502;2023-08-06T05:31:06;6.40;;;5.85;;
76157;SDS011;64907;51.574;6.502;2023-08-06T05:33:31;8.15;;;5.60;;
76157;SDS011;64907;51.574;6.502;2023-08-06T05:35:56;7.97;;;5.20;;
76157;SDS011;64907;51.574;6.502;2023-08-06T05:38:21;6.32;;;5.18;;
76157;SDS011;64907;51.574;6.502;2023-08-06T05:40:47;7.53;;;5.37;;
76157;SDS011;64907;51.574;6.502;2023-08-06T05:43:12;6.13;;;4.68;;
76157;SDS011;64907;51.574;6.502;2023-08-06T05:45:37;5.47;;;4.97;;
76157;SDS011;64907;51.574;6.502;2023-08-06T05:48:03;5.77;;;5.17;;
76157;SDS011;64907;51.574;6.502;2023-08-06T05:50:28;5.35;;;4.95;;
76157;SDS011;64907;51.574;6.502;2023-08-06T05:52:53;6.97;;;5.40;;
76157;SDS011;64907;51.574;6.502;2023-08-06T05:55:19;6.17;;;4.23;;
76157;SDS011;64907;51.574;6.502;2023-08-06T05:57:45;5.25;;;4.72;;
76157;SDS011;64907;51.574;6.502;2023-08-06T06:00:20;7.53;;;5.43;;
76157;SDS011;64907;51.574;6.502;2023-08-06T06:02:45;4.95;;;4.43;;
76157;SDS011;64907;51.574;6.502;2023-08-06T06:05:10;5.17;;;4.67;;
76157;SDS011;64907;51.574;6.502;2023-08-06T06:07:35;4.80;;;4.40;;
76157;SDS011;64907;51.574;6.502;2023-08-06T06:10:01;6.20;;;5.70;;
76157;SDS011;64907;51.574;6.502;2023-08-06T06:12:26;8.70;;;6.32;;
76157;SDS011;64907;51.574;6.502;2023-08-06T06:14:51;6.27;;;5.70;;
76157;SDS011;64907;51.574;6.502;2023-08-06T06:17:16;8.38;;;5.18;;
76157;SDS011;64907;51.574;6.502;2023-08-06T06:19:54;5.70;;;5.20;;
76157;SDS011;64907;51.574;6.502;2023-08-06T06:22:19;9.05;;;5.55;;
76157;SDS011;64907;51.574;6.502;2023-08-06T06:24:45;5.30;;;4.57;;
76157;SDS011;64907;51.574;6.502;2023-08-06T06:27:11;7.65;;;4.22;;
76157;SDS011;64907;51.574;6.502;2023-08-06T06:29:36;5.73;;;4.10;;
76157;SDS011;64907;51.574;6.502;2023-08-06T06:32:01;4.90;;;4.43;;
76157;SDS011;64907;51.574;6.502;2023-08-06T06:34:26;4.47;;;4.03;;
76157;SDS011;64907;51.574;6.502;2023-08-06T06:36:51;4.60;;;4.30;;
76157;SDS011;64907;51.574;6.502;2023-08-06T06:39:17;8.27;;;5.10;;
76157;SDS011;64907;51.574;6.502;2023-08-06T06:41:44;4.53;;;3.88;;
76157;SDS011;64907;51.574;6.502;2023-08-06T06:44:09;4.35;;;4.00;;
76157;SDS011;64907;51.574;6.502;2023-08-06T06:46:34;4.22;;;3.85;;
76157;SDS011;64907;51.574;6.502;2023-08-06T06:49:00;4.88;;;3.92;;
76157;SDS011;64907;51.574;6.502;2023-08-06T06:51:27;4.47;;;3.70;;
76157;SDS011;64907;51.574;6.502;2023-08-06T06:53:52;3.80;;;3.60;;
76157;SDS011;64907;51.574;6.502;2023-08-06T06:56:17;4.13;;;3.50;;
76157;SDS011;64907;51.574;6.502;2023-08-06T06:58:42;3.92;;;3.15;;
76157;SDS011;64907;51.574;6.502;2023-08-06T07:01:08;4.17;;;2.90;;
76157;SDS011;64907;51.574;6.502;2023-08-06T07:03:35;3.53;;;2.70;;
76157;SDS011;64907;51.574;6.502;2023-08-06T07:06:00;2.95;;;2.60;;
76157;SDS011;64907;51.574;6.502;2023-08-06T07:08:25;3.08;;;2.30;;
76157;SDS011;64907;51.574;6.502;2023-08-06T07:10:59;2.88;;;2.60;;
76157;SDS011;64907;51.574;6.502;2023-08-06T07:13:24;1.90;;;1.67;;
76157;SDS011;64907;51.574;6.502;2023-08-06T07:15:50;2.83;;;2.13;;
76157;SDS011;64907;51.574;6.502;2023-08-06T07:18:16;2.93;;;2.10;;
76157;SDS011;64907;51.574;6.502;2023-08-06T07:20:47;1.90;;;1.80;;
76157;SDS011;64907;51.574;6.502;2023-08-06T07:23:14;2.83;;;1.90;;
76157;SDS011;64907;51.574;6.502;2023-08-06T07:25:40;1.52;;;1.45;;
76157;SDS011;64907;51.574;6.502;2023-08-06T07:28:05;1.48;;;1.35;;
76157;SDS011;64907;51.574;6.502;2023-08-06T07:30:30;2.38;;;1.80;;
76157;SDS011;64907;51.574;6.502;2023-08-06T07:32:56;2.08;;;1.98;;
76157;SDS011;64907;51.574;6.502;2023-08-06T07:35:21;2.22;;;2.00;;
76157;SDS011;64907;51.574;6.502;2023-08-06T07:40:29;3.42;;;2.05;;
76157;SDS011;64907;51.574;6.502;2023-08-06T07:42:57;3.38;;;1.95;;
76157;SDS011;64907;51.574;6.502;2023-08-06T07:45:22;4.32;;;2.10;;
76157;SDS011;64907;51.574;6.502;2023-08-06T07:47:47;4.93;;;2.43;;
76157;SDS011;64907;51.574;6.502;2023-08-06T07:50:13;3.20;;;2.60;;
76157;SDS011;64907;51.574;6.502;2023-08-06T07:52:39;4.82;;;2.70;;
76157;SDS011;64907;51.574;6.502;2023-08-06T08:00:48;3.00;;;2.40;;
76157;SDS011;64907;51.574;6.502;2023-08-06T08:03:13;3.80;;;2.60;;
76157;SDS011;64907;51.574;6.502;2023-08-06T08:05:39;2.88;;;2.70;;
76157;SDS011;64907;51.574;6.502;2023-08-06T08:10:37;4.53;;;3.60;;
76157;SDS011;64907;51.574;6.502;2023-08-06T08:13:03;4.55;;;3.55;;
76157;SDS011;64907;51.574;6.502;2023-08-06T08:15:29;5.00;;;3.17;;
76157;SDS011;64907;51.574;6.502;2023-08-06T08:17:54;3.40;;;3.10;;
76157;SDS011;64907;51.574;6.502;2023-08-06T08:20:27;3.70;;;3.40;;
76157;SDS011;64907;51.574;6.502;2023-08-06T08:23:02;4.82;;;4.25;;
76157;SDS011;64907;51.574;6.502;2023-08-06T08:25:27;4.70;;;4.40;;
76157;SDS011;64907;51.574;6.502;2023-08-06T08:28:02;5.95;;;5.05;;
76157;SDS011;64907;51.574;6.502;2023-08-06T08:30:28;6.25;;;5.18;;
76157;SDS011;64907;51.574;6.502;2023-08-06T08:32:54;6.72;;;6.22;;
76157;SDS011;64907;51.574;6.502;2023-08-06T08:35:19;7.97;;;7.30;;
76157;SDS011;64907;51.574;6.502;2023-08-06T08:37:44;7.85;;;7.35;;
76157;SDS011;64907;51.574;6.502;2023-08-06T08:40:17;7.38;;;6.97;;
76157;SDS011;64907;51.574;6.502;2023-08-06T08:42:42;8.07;;;7.55;;
76157;SDS011;64907;51.574;6.502;2023-08-06T08:45:11;7.78;;;7.18;;
76157;SDS011;64907;51.574;6.502;2023-08-06T08:47:36;9.57;;;8.63;;
76157;SDS011;64907;51.574;6.502;2023-08-06T08:52:40;8.90;;;8.27;;
76157;SDS011;64907;51.574;6.502;2023-08-06T08:55:12;8.75;;;7.93;;
76157;SDS011;64907;51.574;6.502;2023-08-06T08:57:39;13.43;;;8.07;;
76157;SDS011;64907;51.574;6.502;2023-08-06T09:00:04;10.07;;;9.13;;
76157;SDS011;64907;51.574;6.502;2023-08-06T09:02:29;9.20;;;8.35;;
76157;SDS011;64907;51.574;6.502;2023-08-06T09:04:57;9.82;;;8.80;;
76157;SDS011;64907;51.574;6.502;2023-08-06T09:07:24;9.40;;;8.55;;
76157;SDS011;64907;51.574;6.502;2023-08-06T09:09:50;9.20;;;7.32;;
76157;SDS011;64907;51.574;6.502;2023-08-06T09:12:19;8.20;;;7.63;;
76157;SDS011;64907;51.574;6.502;2023-08-06T09:14:45;6.80;;;6.30;;
76157;SDS011;64907;51.574;6.502;2023-08-06T09:19:46;6.05;;;5.65;;
76157;SDS011;64907;51.574;6.502;2023-08-06T09:24:48;8.80;;;8.00;;
76157;SDS011;64907;51.574;6.502;2023-08-06T09:27:32;9.38;;;8.52;;
76157;SDS011;64907;51.574;6.502;2023-08-06T09:29:57;10.18;;;9.45;;
76157;SDS011;64907;51.574;6.502;2023-08-06T09:32:23;9.80;;;9.10;;
76157;SDS011;64907;51.574;6.502;2023-08-06T09:34:54;11.40;;;10.55;;
76157;SDS011;64907;51.574;6.502;2023-08-06T09:37:20;11.32;;;10.43;;
76157;SDS011;64907;51.574;6.502;2023-08-06T09:45:31;10.88;;;10.02;;
76157;SDS011;64907;51.574;6.502;2023-08-06T09:47:58;9.98;;;9.27;;
76157;SDS011;64907;51.574;6.502;2023-08-06T09:50:23;10.65;;;9.57;;
76157;SDS011;64907;51.574;6.502;2023-08-06T09:58:08;13.57;;;12.57;;
76157;SDS011;64907;51.574;6.502;2023-08-06T10:00:34;12.15;;;11.25;;
76157;SDS011;64907;51.574;6.502;2023-08-06T10:05:37;13.98;;;12.93;;
76157;SDS011;64907;51.574;6.502;2023-08-06T10:08:05;15.35;;;14.15;;
76157;SDS011;64907;51.574;6.502;2023-08-06T10:10:31;15.98;;;14.60;;
76157;SDS011;64907;51.574;6.502;2023-08-06T10:12:58;14.38;;;13.27;;
76157;SDS011;64907;51.574;6.502;2023-08-06T10:18:13;18.23;;;16.67;;
76157;SDS011;64907;51.574;6.502;2023-08-06T10:20:42;17.27;;;15.80;;
76157;SDS011;64907;51.574;6.502;2023-08-06T10:25:42;5.00;;;4.70;;
76157;SDS011;64907;51.574;6.502;2023-08-06T10:30:51;3.15;;;2.25;;
76157;SDS011;64907;51.574;6.502;2023-08-06T10:35:50;3.90;;;3.10;;
76157;SDS011;64907;51.574;6.502;2023-08-06T10:38:16;2.22;;;2.13;;
76157;SDS011;64907;51.574;6.502;2023-08-06T10:48:57;2.17;;;2.08;;
76157;SDS011;64907;51.574;6.502;2023-08-06T10:51:22;2.17;;;2.08;;
76157;SDS011;64907;51.574;6.502;2023-08-06T10:56:32;1.48;;;1.48;;
76157;SDS011;64907;51.574;6.502;2023-08-06T10:59:05;1.85;;;1.85;;
76157;SDS011;64907;51.574;6.502;2023-08-06T11:04:30;5.72;;;2.70;;
76157;SDS011;64907;51.574;6.502;2023-08-06T11:06:56;2.35;;;2.13;;
76157;SDS011;64907;51.574;6.502;2023-08-06T11:09:30;2.70;;;2.22;;
76157;SDS011;64907;51.574;6.502;2023-08-06T11:11:57;4.20;;;2.20;;
76157;SDS011;64907;51.574;6.502;2023-08-06T11:14:22;4.88;;;2.00;;
76157;SDS011;64907;51.574;6.502;2023-08-06T11:16:49;2.30;;;2.20;;
76157;SDS011;64907;51.574;6.502;2023-08-06T11:19:16;3.50;;;2.40;;
76157;SDS011;64907;51.574;6.502;2023-08-06T11:24:13;1.83;;;1.83;;
76157;SDS011;64907;51.574;6.502;2023-08-06T11:26:45;1.73;;;1.70;;
76157;SDS011;64907;51.574;6.502;2023-08-06T11:29:10;2.35;;;2.15;;
76157;SDS011;64907;51.574;6.502;2023-08-06T11:31:35;2.40;;;2.20;;
76157;SDS011;64907;51.574;6.502;2023-08-06T11:34:01;1.83;;;1.73;;
76157;SDS011;64907;51.574;6.502;2023-08-06T11:36:32;1.90;;;1.70;;
76157;SDS011;64907;51.574;6.502;2023-08-06T11:39:00;2.55;;;2.35;;
76157;SDS011;64907;51.574;6.502;2023-08-06T11:41:40;2.55;;;2.35;;
76157;SDS011;64907;51.574;6.502;2023-08-06T11:44:15;3.42;;;2.65;;
76157;SDS011;64907;51.574;6.502;2023-08-06T11:46:53;5.65;;;2.50;;
76157;SDS011;64907;51.574;6.502;2023-08-06T11:52:17;3.70;;;2.75;;
76157;SDS011;64907;51.574;6.502;2023-08-06T11:54:59;5.63;;;3.90;;
76157;SDS011;64907;51.574;6.502;2023-08-06T12:00:07;3.72;;;3.53;;
76157;SDS011;64907;51.574;6.502;2023-08-06T12:02:33;3.63;;;3.33;;
76157;SDS011;64907;51.574;6.502;2023-08-06T12:07:49;4.78;;;4.40;;
76157;SDS011;64907;51.574;6.502;2023-08-06T12:10:14;5.75;;;5.28;;
76157;SDS011;64907;51.574;6.502;2023-08-06T12:12:43;5.45;;;4.55;;
76157;SDS011;64907;51.574;6.502;2023-08-06T12:15:16;4.38;;;4.13;;
76157;SDS011;64907;51.574;6.502;2023-08-06T12:17:42;6.70;;;5.70;;
76157;SDS011;64907;51.574;6.502;2023-08-06T12:20:08;5.68;;;5.10;;
76157;SDS011;64907;51.574;6.502;2023-08-06T12:27:56;5.75;;;5.25;;
76157;SDS011;64907;51.574;6.502;2023-08-06T12:30:24;5.68;;;5.18;;
76157;SDS011;64907;51.574;6.502;2023-08-06T12:32:57;7.32;;;6.65;;
76157;SDS011;64907;51.574;6.502;2023-08-06T12:37:52;5.55;;;5.15;;
76157;SDS011;64907;51.574;6.502;2023-08-06T12:45:35;6.88;;;6.28;;
76157;SDS011;64907;51.574;6.502;2023-08-06T12:48:03;11.95;;;6.93;;
76157;SDS011;64907;51.574;6.502;2023-08-06T12:50:29;6.30;;;5.72;;
76157;SDS011;64907;51.574;6.502;2023-08-06T12:52:58;6.68;;;6.07;;
76157;SDS011;64907;51.574;6.502;2023-08-06T12:55:23;10.00;;;6.00;;
76157;SDS011;64907;51.574;6.502;2023-08-06T12:57:56;7.65;;;6.95;;
76157;SDS011;64907;51.574;6.502;2023-08-06T13:00:28;5.43;;;5.03;;
76157;SDS011;64907;51.574;6.502;2023-08-06T13:02:57;8.13;;;7.00;;
76157;SDS011;64907;51.574;6.502;2023-08-06T13:10:47;9.55;;;7.45;;
76157;SDS011;64907;51.574;6.502;2023-08-06T13:13:12;6.35;;;5.85;;
76157;SDS011;64907;51.574;6.502;2023-08-06T13:18:17;6.00;;;5.43;;
76157;SDS011;64907;51.574;6.502;2023-08-06T13:20:43;5.72;;;5.25;;
76157;SDS011;64907;51.574;6.502;2023-08-06T13:23:15;6.85;;;6.25;;
76157;SDS011;64907;51.574;6.502;2023-08-06T13:28:30;6.03;;;5.47;;
76157;SDS011;64907;51.574;6.502;2023-08-06T13:30:59;7.10;;;6.40;;
76157;SDS011;64907;51.574;6.502;2023-08-06T13:33:30;7.63;;;6.70;;
76157;SDS011;64907;51.574;6.502;2023-08-06T13:35:55;5.15;;;4.78;;
76157;SDS011;64907;51.574;6.502;2023-08-06T13:38:20;6.93;;;6.13;;
76157;SDS011;64907;51.574;6.502;2023-08-06T13:40:46;9.38;;;6.82;;
76157;SDS011;64907;51.574;6.502;2023-08-06T13:43:11;6.90;;;6.15;;
76157;SDS011;64907;51.574;6.502;2023-08-06T13:45:36;7.40;;;6.35;;
76157;SDS011;64907;51.574;6.502;2023-08-06T13:48:09;6.40;;;5.80;;
76157;SDS011;64907;51.574;6.502;2023-08-06T13:53:28;7.07;;;6.38;;
76157;SDS011;64907;51.574;6.502;2023-08-06T13:55:55;5.63;;;5.13;;
76157;SDS011;64907;51.574;6.502;2023-08-06T13:58:22;6.53;;;5.78;;
76157;SDS011;64907;51.574;6.502;2023-08-06T14:00:55;9.10;;;6.88;;
76157;SDS011;64907;51.574;6.502;2023-08-06T14:03:27;5.70;;;5.25;;
76157;SDS011;64907;51.574;6.502;2023-08-06T14:05:53;6.20;;;4.97;;
76157;SDS011;64907;51.574;6.502;2023-08-06T14:08:20;7.25;;;4.95;;
76157;SDS011;64907;51.574;6.502;2023-08-06T14:10:45;5.07;;;4.70;;
76157;SDS011;64907;51.574;6.502;2023-08-06T14:13:10;4.93;;;4.53;;
76157;SDS011;64907;51.574;6.502;2023-08-06T14:15:38;4.72;;;4.32;;
76157;SDS011;64907;51.574;6.502;2023-08-06T14:18:06;4.53;;;4.22;;
76157;SDS011;64907;51.574;6.502;2023-08-06T14:20:33;4.50;;;3.60;;
76157;SDS011;64907;51.574;6.502;2023-08-06T14:22:58;5.28;;;4.25;;
76157;SDS011;64907;51.574;6.502;2023-08-06T14:25:23;5.50;;;4.40;;
76157;SDS011;64907;51.574;6.502;2023-08-06T14:27:49;5.07;;;4.57;;
76157;SDS011;64907;51.574;6.502;2023-08-06T14:30:14;4.20;;;3.80;;
76157;SDS011;64907;51.574;6.502;2023-08-06T14:32:39;3.73;;;3.53;;
76157;SDS011;64907;51.574;6.502;2023-08-06T14:35:05;3.50;;;3.30;;
76157;SDS011;64907;51.574;6.502;2023-08-06T14:37:44;4.40;;;4.00;;
76157;SDS011;64907;51.574;6.502;2023-08-06T14:48:09;3.85;;;3.55;;
76157;SDS011;64907;51.574;6.502;2023-08-06T14:50:35;3.03;;;2.83;;
76157;SDS011;64907;51.574;6.502;2023-08-06T14:53:09;4.22;;;2.90;;
76157;SDS011;64907;51.574;6.502;2023-08-06T14:55:45;3.10;;;2.90;;
76157;SDS011;64907;51.574;6.502;2023-08-06T14:58:13;3.45;;;2.97;;
76157;SDS011;64907;51.574;6.502;2023-08-06T15:03:14;2.97;;;2.78;;
76157;SDS011;64907;51.574;6.502;2023-08-06T15:05:43;2.38;;;2.28;;
76157;SDS011;64907;51.574;6.502;2023-08-06T15:08:10;2.33;;;2.22;;
76157;SDS011;64907;51.574;6.502;2023-08-06T15:13:23;2.40;;;2.20;;
76157;SDS011;64907;51.574;6.502;2023-08-06T15:15:49;2.55;;;2.35;;
76157;SDS011;64907;51.574;6.502;2023-08-06T15:18:16;2.38;;;2.17;;
76157;SDS011;64907;51.574;6.502;2023-08-06T15:20:41;2.42;;;1.90;;
76157;SDS011;64907;51.574;6.502;2023-08-06T15:23:07;2.40;;;2.20;;
76157;SDS011;64907;51.574;6.502;2023-08-06T15:25:32;1.90;;;1.80;;
76157;SDS011;64907;51.574;6.502;2023-08-06T15:27:57;2.10;;;2.00;;
76157;SDS011;64907;51.574;6.502;2023-08-06T15:30:22;1.95;;;1.88;;
76157;SDS011;64907;51.574;6.502;2023-08-06T15:32:56;2.55;;;2.20;;
76157;SDS011;64907;51.574;6.502;2023-08-06T15:35:21;2.15;;;1.95;;
76157;SDS011;64907;51.574;6.502;2023-08-06T15:37:47;2.10;;;1.98;;
76157;SDS011;64907;51.574;6.502;2023-08-06T15:40:12;2.05;;;1.95;;
76157;SDS011;64907;51.574;6.502;2023-08-06T15:42:37;2.15;;;2.05;;
76157;SDS011;64907;51.574;6.502;2023-08-06T15:45:03;2.10;;;2.00;;
76157;SDS011;64907;51.574;6.502;2023-08-06T15:47:28;2.42;;;2.28;;
76157;SDS011;64907;51.574;6.502;2023-08-06T15:49:53;5.15;;;2.33;;
76157;SDS011;64907;51.574;6.502;2023-08-06T15:52:20;1.98;;;1.88;;
76157;SDS011;64907;51.574;6.502;2023-08-06T15:54:46;2.65;;;2.50;;
76157;SDS011;64907;51.574;6.502;2023-08-06T15:57:11;2.40;;;2.20;;
76157;SDS011;64907;51.574;6.502;2023-08-06T15:59:50;2.70;;;2.25;;
76157;SDS011;64907;51.574;6.502;2023-08-06T16:02:18;2.30;;;2.15;;
76157;SDS011;64907;51.574;6.502;2023-08-06T16:07:15;2.97;;;2.40;;
76157;SDS011;64907;51.574;6.502;2023-08-06T16:09:46;2.85;;;2.28;;
76157;SDS011;64907;51.574;6.502;2023-08-06T16:12:11;3.45;;;2.28;;
76157;SDS011;64907;51.574;6.502;2023-08-06T16:17:26;3.10;;;2.30;;
76157;SDS011;64907;51.574;6.502;2023-08-06T16:19:52;2.33;;;2.13;;
76157;SDS011;64907;51.574;6.502;2023-08-06T16:24:55;3.08;;;2.88;;
76157;SDS011;64907;51.574;6.502;2023-08-06T16:27:33;2.90;;;2.70;;
76157;SDS011;64907;51.574;6.502;2023-08-06T16:29:58;4.05;;;3.63;;
76157;SDS011;64907;51.574;6.502;2023-08-06T16:32:24;4.18;;;3.83;;
76157;SDS011;64907;51.574;6.502;2023-08-06T16:34:52;4.88;;;4.45;;
76157;SDS011;64907;51.574;6.502;2023-08-06T16:37:18;6.15;;;5.22;;
76157;SDS011;64907;51.574;6.502;2023-08-06T16:42:20;6.05;;;5.53;;
76157;SDS011;64907;51.574;6.502;2023-08-06T16:44:45;6.23;;;5.63;;
76157;SDS011;64907;51.574;6.502;2023-08-06T16:49:41;10.32;;;6.25;;
76157;SDS011;64907;51.574;6.502;2023-08-06T16:52:06;6.55;;;6.13;;
76157;SDS011;64907;51.574;6.502;2023-08-06T16:54:31;6.65;;;6.05;;
76157;SDS011;64907;51.574;6.502;2023-08-06T16:56:57;6.77;;;6.07;;
76157;SDS011;64907;51.574;6.502;2023-08-06T16:59:25;9.60;;;7.40;;
76157;SDS011;64907;51.574;6.502;2023-08-06T17:01:52;8.43;;;7.20;;
76157;SDS011;64907;51.574;6.502;2023-08-06T17:04:20;10.55;;;7.53;;